createdAt,value
2019-02-19T00:00:01.387Z,4.11
2019-02-19T00:02:32.062Z,4.04
2019-02-19T00:05:02.816Z,3.99
2019-02-19T00:07:33.322Z,3.95
2019-02-19T00:10:03.973Z,3.81
2019-02-19T00:12:34.604Z,3.73
2019-02-19T00:15:08.363Z,3.72
2019-02-19T00:17:37.844Z,3.80
2019-02-19T00:20:08.469Z,3.90
2019-02-19T00:22:38.932Z,3.82
2019-02-19T00:25:09.559Z,3.76
2019-02-19T00:27:40.063Z,3.81
2019-02-19T00:30:11.284Z,3.80
2019-02-19T00:32:41.912Z,3.80
2019-02-19T00:35:12.613Z,3.85
2019-02-19T00:37:43.259Z,3.84
2019-02-19T00:40:13.849Z,3.93
2019-02-19T00:42:44.212Z,3.86
2019-02-19T00:45:16.766Z,3.81
2019-02-19T00:47:47.188Z,3.80
2019-02-19T00:50:17.861Z,3.75
2019-02-19T00:52:48.405Z,3.67
2019-02-19T00:55:18.884Z,3.63
2019-02-19T00:57:49.382Z,3.55
2019-02-19T01:00:20.115Z,3.46
2019-02-19T01:02:51.248Z,3.46
2019-02-19T01:05:21.893Z,3.51
2019-02-19T01:07:52.412Z,3.39
2019-02-19T01:10:22.862Z,3.36
2019-02-19T01:12:53.802Z,3.33
2019-02-19T01:15:25.679Z,3.62
2019-02-19T01:17:57.805Z,3.34
2019-02-19T01:20:28.354Z,3.38
2019-02-19T01:22:58.902Z,3.42
2019-02-19T01:25:29.406Z,3.51
2019-02-19T01:27:59.904Z,3.48
2019-02-19T01:30:30.325Z,3.45
2019-02-19T01:33:00.855Z,3.39
2019-02-19T01:35:31.584Z,3.40
2019-02-19T01:38:02.049Z,3.46
2019-02-19T01:40:32.452Z,3.47
2019-02-19T01:43:03.006Z,3.56
2019-02-19T01:45:34.267Z,3.55
2019-02-19T01:48:05.045Z,3.54
2019-02-19T01:50:35.471Z,3.52
2019-02-19T01:53:06.012Z,3.45
2019-02-19T01:55:36.522Z,3.45
2019-02-19T01:58:07.048Z,3.36
2019-02-19T02:00:37.504Z,3.41
2019-02-19T02:03:07.963Z,3.44
2019-02-19T02:05:38.373Z,3.42
2019-02-19T02:08:09.022Z,3.42
2019-02-19T02:10:39.464Z,3.81
2019-02-19T02:13:09.808Z,3.63
2019-02-19T02:15:42.705Z,3.62
2019-02-19T02:18:12.494Z,3.59
2019-02-19T02:20:43.069Z,3.51
2019-02-19T02:23:13.483Z,3.47
2019-02-19T02:25:43.825Z,3.54
2019-02-19T02:28:14.164Z,3.50
2019-02-19T02:30:44.653Z,3.49
2019-02-19T02:33:15.092Z,3.44
2019-02-19T02:35:45.464Z,3.45
2019-02-19T02:38:15.800Z,3.51
2019-02-19T02:40:46.433Z,3.57
2019-02-19T02:43:16.844Z,3.63
2019-02-19T02:45:53.398Z,3.65
2019-02-19T02:48:19.474Z,3.69
2019-02-19T02:50:50.020Z,3.70
2019-02-19T02:53:20.483Z,3.78
2019-02-19T02:55:50.808Z,3.81
2019-02-19T02:58:21.212Z,3.79
2019-02-19T03:00:51.802Z,3.67
2019-02-19T03:03:22.364Z,3.58
2019-02-19T03:06:18.103Z,3.53
2019-02-19T03:08:48.558Z,3.51
2019-02-19T03:11:19.192Z,3.62
2019-02-19T03:13:49.662Z,3.66
2019-02-19T03:16:20.354Z,3.63
2019-02-19T03:18:50.862Z,3.57
2019-02-19T03:21:21.598Z,3.44
2019-02-19T03:23:52.112Z,3.41
2019-02-19T03:26:22.519Z,3.48
2019-02-19T03:28:52.900Z,3.47
2019-02-19T03:31:23.380Z,3.33
2019-02-19T03:33:54.033Z,3.31
2019-02-19T03:36:24.423Z,3.15
2019-02-19T03:38:54.870Z,3.07
2019-02-19T03:41:25.249Z,3.05
2019-02-19T03:43:55.764Z,3.08
2019-02-19T03:46:26.182Z,3.27
2019-02-19T03:48:56.684Z,3.08
2019-02-19T03:51:27.544Z,3.31
2019-02-19T03:53:58.034Z,3.19
2019-02-19T03:56:28.520Z,3.19
2019-02-19T03:58:59.021Z,3.29
2019-02-19T04:01:29.508Z,3.26
2019-02-19T04:04:00.076Z,3.12
2019-02-19T04:06:32.373Z,3.08
2019-02-19T04:09:02.734Z,3.21
2019-02-19T04:11:33.296Z,3.43
2019-02-19T04:14:11.094Z,3.30
2019-02-19T04:16:41.564Z,3.25
2019-02-19T04:19:12.213Z,3.14
2019-02-19T04:21:42.634Z,3.08
2019-02-19T04:24:13.144Z,3.02
2019-02-19T04:26:43.634Z,3.09
2019-02-19T04:29:14.126Z,3.30
2019-02-19T04:31:44.502Z,3.32
2019-02-19T04:34:15.226Z,3.22
2019-02-19T04:36:45.554Z,3.23
2019-02-19T04:39:15.919Z,3.23
2019-02-19T04:41:46.415Z,3.21
2019-02-19T04:44:17.007Z,3.28
2019-02-19T04:46:47.472Z,3.46
2019-02-19T04:49:17.989Z,3.79
2019-02-19T04:51:48.383Z,3.99
2019-02-19T04:54:19.033Z,3.79
2019-02-19T04:56:49.456Z,3.71
2019-02-19T04:59:19.966Z,3.66
2019-02-19T05:01:50.689Z,3.52
2019-02-19T05:04:21.152Z,3.42
2019-02-19T05:06:51.725Z,3.31
2019-02-19T05:09:22.251Z,3.31
2019-02-19T05:11:52.760Z,3.17
2019-02-19T05:14:23.296Z,3.18
2019-02-19T05:16:53.722Z,3.11
2019-02-19T05:19:24.258Z,3.02
2019-02-19T05:21:54.748Z,2.88
2019-02-19T05:24:25.234Z,3.00
2019-02-19T05:26:55.782Z,2.88
2019-02-19T05:29:26.355Z,2.96
2019-02-19T05:31:56.922Z,3.16
2019-02-19T05:34:27.510Z,3.18
2019-02-19T05:36:58.092Z,3.23
2019-02-19T05:39:28.656Z,3.10
2019-02-19T05:41:59.179Z,3.37
2019-02-19T05:44:29.709Z,3.25
2019-02-19T05:47:00.605Z,3.26
2019-02-19T05:49:31.457Z,3.39
2019-02-19T05:52:02.260Z,3.24
2019-02-19T05:54:34.419Z,3.16
2019-02-19T05:57:05.170Z,3.16
2019-02-19T05:59:35.999Z,3.03
2019-02-19T06:02:06.458Z,2.99
2019-02-19T06:04:37.120Z,3.05
2019-02-19T06:07:07.794Z,3.02
2019-02-19T06:09:38.208Z,3.09
2019-02-19T06:12:08.711Z,3.08
2019-02-19T06:14:39.110Z,3.17
2019-02-19T06:17:09.645Z,3.40
2019-02-19T06:19:40.066Z,3.77
2019-02-19T06:22:10.558Z,4.27
2019-02-19T06:24:41.091Z,4.99
2019-02-19T06:27:11.550Z,5.80
2019-02-19T06:29:41.954Z,6.59
2019-02-19T06:32:12.444Z,7.20
2019-02-19T06:34:42.977Z,7.72
2019-02-19T06:37:13.899Z,8.38
2019-02-19T06:39:44.421Z,9.16
2019-02-19T06:42:14.868Z,10.02
2019-02-19T06:44:45.504Z,10.62
2019-02-19T06:47:15.874Z,11.59
2019-02-19T06:49:46.289Z,12.31
2019-02-19T06:52:16.754Z,12.87
2019-02-19T06:54:47.362Z,13.52
2019-02-19T06:57:17.944Z,13.81
2019-02-19T06:59:48.492Z,14.00
2019-02-19T07:02:25.849Z,14.47
2019-02-19T07:04:58.944Z,15.00
2019-02-19T07:07:29.458Z,15.31
2019-02-19T07:09:59.890Z,15.43
2019-02-19T07:12:30.637Z,15.66
2019-02-19T07:15:02.044Z,15.90
2019-02-19T07:17:32.536Z,15.77
2019-02-19T07:20:03.035Z,15.70
2019-02-19T07:22:33.571Z,15.65
2019-02-19T07:25:04.555Z,15.71
2019-02-19T07:27:35.309Z,14.88
2019-02-19T07:30:06.830Z,14.69
2019-02-19T07:32:37.485Z,16.38
2019-02-19T07:35:08.262Z,16.34
2019-02-19T07:37:38.829Z,17.36
2019-02-19T07:40:09.699Z,17.39
2019-02-19T07:42:40.219Z,18.08
2019-02-19T07:45:11.254Z,18.13
2019-02-19T07:47:41.890Z,18.39
2019-02-19T07:50:12.600Z,18.19
2019-02-19T07:52:43.241Z,18.07
2019-02-19T07:55:13.990Z,18.19
2019-02-19T07:57:44.590Z,18.40
2019-02-19T08:00:15.431Z,18.22
2019-02-19T08:02:45.984Z,18.10
2019-02-19T08:05:16.469Z,18.27
2019-02-19T08:07:47.107Z,18.49
2019-02-19T08:10:17.555Z,18.16
2019-02-19T08:12:48.624Z,18.78
2019-02-19T08:15:19.102Z,18.65
2019-02-19T08:17:49.655Z,19.16
2019-02-19T08:20:20.150Z,19.24
2019-02-19T08:22:50.668Z,19.25
2019-02-19T08:25:21.328Z,19.11
2019-02-19T08:27:51.765Z,19.28
2019-02-19T08:30:22.665Z,19.19
2019-02-19T08:32:53.024Z,19.25
2019-02-19T08:35:23.625Z,19.62
2019-02-19T08:37:54.878Z,19.84
2019-02-19T08:40:25.388Z,19.80
2019-02-19T08:42:56.058Z,18.12
2019-02-19T08:45:26.761Z,18.92
2019-02-19T08:47:57.208Z,18.51
2019-02-19T08:50:27.523Z,18.41
2019-02-19T08:52:58.070Z,17.84
2019-02-19T08:55:28.808Z,18.31
2019-02-19T08:57:59.456Z,17.84
2019-02-19T09:00:29.999Z,18.80
2019-02-19T09:03:00.633Z,18.55
2019-02-19T09:05:31.095Z,19.18
2019-02-19T09:08:01.435Z,19.45
2019-02-19T09:10:31.817Z,19.41
2019-02-19T09:13:02.457Z,16.34
2019-02-19T09:15:33.048Z,19.11
2019-02-19T09:18:03.471Z,17.17
2019-02-19T09:20:34.010Z,17.43
2019-02-19T09:23:04.490Z,19.86
2019-02-19T09:25:34.925Z,20.12
2019-02-19T09:28:05.830Z,20.76
2019-02-19T09:30:37.764Z,19.52
2019-02-19T09:33:08.879Z,20.68
2019-02-19T09:35:39.399Z,21.13
2019-02-19T09:38:09.991Z,20.37
2019-02-19T09:40:40.404Z,21.46
2019-02-19T09:43:10.955Z,20.76
2019-02-19T09:45:41.591Z,20.78
2019-02-19T09:48:12.398Z,19.64
2019-02-19T09:50:42.871Z,21.50
2019-02-19T09:53:13.525Z,21.56
2019-02-19T09:55:44.004Z,20.76
2019-02-19T09:58:14.302Z,21.88
2019-02-19T10:00:44.824Z,20.90
2019-02-19T10:03:15.741Z,21.20
2019-02-19T10:05:48.075Z,21.14
2019-02-19T10:08:18.604Z,22.07
2019-02-19T10:10:49.202Z,22.60
2019-02-19T10:13:19.924Z,22.31
2019-02-19T10:15:50.413Z,21.41
2019-02-19T10:18:20.907Z,21.98
2019-02-19T10:20:51.930Z,22.34
2019-02-19T10:23:22.561Z,23.15
2019-02-19T10:25:53.093Z,22.26
2019-02-19T10:28:23.606Z,22.06
2019-02-19T10:31:00.450Z,22.70
2019-02-19T10:33:30.810Z,22.94
2019-02-19T10:36:01.264Z,22.33
2019-02-19T10:38:31.696Z,22.06
2019-02-19T10:41:02.685Z,21.49
2019-02-19T10:43:33.353Z,21.43
2019-02-19T10:46:04.179Z,21.64
2019-02-19T10:48:34.675Z,20.85
2019-02-19T10:51:05.493Z,21.71
2019-02-19T10:53:36.055Z,20.92
2019-02-19T10:56:07.965Z,20.45
2019-02-19T10:58:38.695Z,20.29
2019-02-19T11:01:09.245Z,20.57
2019-02-19T11:03:39.806Z,20.45
2019-02-19T11:06:10.278Z,20.69
2019-02-19T11:08:40.839Z,20.44
2019-02-19T11:11:11.438Z,20.24
2019-02-19T11:13:41.912Z,20.41
2019-02-19T11:16:12.391Z,19.42
2019-02-19T11:18:43.004Z,19.84
2019-02-19T11:21:19.327Z,20.08
2019-02-19T11:23:45.657Z,20.29
2019-02-19T11:26:16.274Z,20.47
2019-02-19T11:28:46.849Z,20.02
2019-02-19T11:31:17.434Z,19.94
2019-02-19T11:33:48.038Z,19.32
2019-02-19T11:36:18.597Z,18.94
2019-02-19T11:38:49.182Z,18.77
2019-02-19T11:41:19.837Z,18.71
2019-02-19T11:43:51.043Z,18.27
2019-02-19T11:46:21.597Z,18.50
2019-02-19T11:48:52.137Z,19.16
2019-02-19T11:51:22.559Z,19.60
2019-02-19T11:53:52.952Z,19.49
2019-02-19T11:56:23.641Z,18.91
2019-02-19T11:58:54.208Z,18.46
2019-02-19T12:01:25.042Z,19.02
2019-02-19T12:03:55.531Z,18.51
2019-02-19T12:06:25.932Z,18.22
2019-02-19T12:08:57.139Z,18.70
2019-02-19T12:11:27.774Z,18.33
2019-02-19T12:13:58.252Z,18.61
2019-02-19T12:16:28.789Z,17.99
2019-02-19T12:18:59.481Z,17.43
2019-02-19T12:21:29.845Z,17.36
2019-02-19T12:24:00.285Z,17.16
2019-02-19T12:26:30.784Z,16.58
2019-02-19T12:29:01.312Z,16.61
2019-02-19T12:31:31.822Z,16.56
2019-02-19T12:34:02.330Z,16.13
2019-02-19T12:36:33.368Z,16.02
2019-02-19T12:39:05.195Z,15.93
2019-02-19T12:41:35.853Z,15.85
2019-02-19T12:44:06.812Z,15.94
2019-02-19T12:46:37.389Z,15.70
2019-02-19T12:49:07.927Z,15.64
2019-02-19T12:51:38.388Z,15.43
2019-02-19T12:54:08.900Z,15.44
2019-02-19T12:56:39.353Z,15.14
2019-02-19T12:59:09.871Z,14.87
2019-02-19T13:01:40.419Z,15.01
2019-02-19T13:04:10.889Z,14.95
2019-02-19T13:06:41.425Z,14.81
2019-02-19T13:09:11.844Z,14.71
2019-02-19T13:11:42.222Z,14.77
2019-02-19T13:14:12.940Z,14.65
2019-02-19T13:16:43.524Z,14.63
2019-02-19T13:19:13.994Z,14.51
2019-02-19T13:21:44.474Z,14.43
2019-02-19T13:24:14.977Z,14.07
2019-02-19T13:26:45.868Z,13.83
2019-02-19T13:29:16.304Z,13.50
2019-02-19T13:31:46.782Z,13.58
2019-02-19T13:34:17.284Z,13.52
2019-02-19T13:36:48.033Z,13.50
2019-02-19T13:39:19.323Z,13.61
2019-02-19T13:41:49.769Z,13.63
2019-02-19T13:44:20.309Z,13.61
2019-02-19T13:46:50.892Z,13.68
2019-02-19T13:49:21.613Z,13.59
2019-02-19T13:51:53.884Z,13.69
2019-02-19T13:54:40.719Z,13.59
2019-02-19T13:57:11.158Z,13.43
2019-02-19T13:59:41.580Z,13.43
2019-02-19T14:02:12.080Z,13.28
2019-02-19T14:04:42.493Z,13.06
2019-02-19T14:07:12.926Z,12.75
2019-02-19T14:09:43.402Z,12.44
2019-02-19T14:12:13.881Z,12.41
2019-02-19T14:14:49.114Z,12.36
2019-02-19T14:17:22.273Z,12.42
2019-02-19T14:20:00.305Z,12.44
2019-02-19T14:22:47.459Z,12.41
2019-02-19T14:25:36.772Z,12.56
2019-02-19T14:28:26.229Z,12.63
2019-02-19T14:31:15.862Z,12.75
2019-02-19T14:34:05.268Z,12.68
2019-02-19T14:36:48.866Z,12.74
2019-02-19T14:39:38.189Z,12.61
2019-02-19T14:42:27.656Z,12.54
2019-02-19T14:45:14.178Z,12.41
2019-02-19T14:48:03.530Z,12.28
2019-02-19T14:50:52.770Z,12.24
2019-02-19T14:53:42.170Z,12.10
2019-02-19T14:56:31.503Z,11.92
2019-02-19T14:59:20.891Z,11.76
2019-02-19T15:02:10.372Z,11.65
2019-02-19T15:04:59.643Z,11.59
2019-02-19T15:07:48.991Z,11.52
2019-02-19T15:10:38.445Z,11.47
2019-02-19T15:13:27.982Z,11.42
2019-02-19T15:16:17.449Z,11.48
2019-02-19T15:19:06.780Z,11.47
2019-02-19T15:21:56.059Z,11.45
2019-02-19T15:24:45.349Z,11.41
2019-02-19T15:27:34.668Z,11.35
2019-02-19T15:30:24.432Z,11.30
2019-02-19T15:33:14.262Z,11.27
2019-02-19T15:36:03.805Z,11.13
2019-02-19T15:38:53.259Z,11.17
2019-02-19T15:41:36.654Z,11.12
2019-02-19T15:44:25.978Z,11.06
2019-02-19T15:47:06.758Z,11.03
2019-02-19T15:49:56.400Z,10.99
2019-02-19T15:52:46.080Z,10.93
2019-02-19T15:55:30.317Z,10.91
2019-02-19T15:58:19.710Z,10.86
2019-02-19T16:01:09.344Z,10.82
2019-02-19T16:03:52.548Z,10.75
2019-02-19T16:06:42.154Z,10.70
2019-02-19T16:09:32.133Z,10.69
2019-02-19T16:12:15.502Z,10.63
2019-02-19T16:15:04.945Z,10.55
2019-02-19T16:17:54.409Z,10.48
2019-02-19T16:20:43.770Z,10.37
2019-02-19T16:23:32.685Z,10.26
2019-02-19T16:26:20.087Z,10.25
2019-02-19T16:29:09.433Z,10.22
2019-02-19T16:31:59.004Z,10.07
2019-02-19T16:34:48.531Z,10.06
2019-02-19T16:37:32.217Z,10.03
2019-02-19T16:40:21.745Z,9.79
2019-02-19T16:43:11.108Z,9.75
2019-02-19T16:45:54.708Z,9.80
2019-02-19T16:48:44.561Z,9.70
2019-02-19T16:51:34.036Z,9.74
2019-02-19T16:54:13.705Z,9.56
2019-02-19T16:56:52.113Z,9.48
2019-02-19T16:59:41.601Z,9.44
2019-02-19T17:02:26.434Z,9.37
2019-02-19T17:05:15.795Z,9.24
2019-02-19T17:07:51.656Z,9.15
2019-02-19T17:10:30.030Z,9.08
2019-02-19T17:13:19.446Z,8.93
2019-02-19T17:16:02.520Z,8.90
2019-02-19T17:18:42.003Z,8.78
2019-02-19T17:21:23.600Z,8.67
2019-02-19T17:24:15.259Z,8.59
2019-02-19T17:26:59.831Z,8.52
2019-02-19T17:29:39.149Z,8.45
2019-02-19T17:32:34.587Z,8.43
2019-02-19T17:35:26.933Z,8.38
2019-02-19T17:38:14.387Z,8.34
2019-02-19T17:40:51.248Z,8.30
2019-02-19T17:43:33.451Z,8.23
2019-02-19T17:46:25.965Z,8.17
2019-02-19T17:49:01.494Z,8.10
2019-02-19T17:51:50.895Z,8.08
2019-02-19T17:54:31.262Z,8.00
2019-02-19T17:57:20.646Z,7.97
2019-02-19T18:00:10.101Z,7.99
2019-02-19T18:02:54.687Z,7.88
2019-02-19T18:05:48.502Z,7.87
2019-02-19T18:08:30.427Z,7.81
2019-02-19T18:11:19.956Z,7.77
2019-02-19T18:14:07.327Z,7.79
2019-02-19T18:17:01.078Z,7.76
2019-02-19T18:19:42.893Z,7.72
2019-02-19T18:22:16.892Z,7.70
2019-02-19T18:24:58.580Z,7.69
2019-02-19T18:27:37.346Z,7.66
2019-02-19T18:30:11.252Z,7.61
2019-02-19T18:32:46.581Z,7.52
2019-02-19T18:35:18.183Z,7.48
2019-02-19T18:37:58.417Z,7.47
2019-02-19T18:40:31.080Z,7.45
2019-02-19T18:43:03.166Z,7.37
2019-02-19T18:45:39.185Z,7.34
2019-02-19T18:48:10.735Z,7.25
2019-02-19T18:50:42.673Z,7.17
2019-02-19T18:53:16.756Z,7.15
2019-02-19T18:55:51.132Z,7.11
2019-02-19T18:58:28.365Z,7.11
2019-02-19T19:01:02.147Z,7.09
2019-02-19T19:03:36.318Z,7.11
2019-02-19T19:06:07.326Z,7.13
2019-02-19T19:08:37.905Z,7.10
2019-02-19T19:11:09.681Z,7.07
2019-02-19T19:13:53.529Z,7.05
2019-02-19T19:16:29.852Z,6.98
2019-02-19T19:19:07.402Z,6.83
2019-02-19T19:21:43.980Z,6.67
2019-02-19T19:24:18.355Z,6.58
2019-02-19T19:27:02.510Z,6.50
2019-02-19T19:29:40.349Z,6.38
2019-02-19T19:32:13.573Z,6.29
2019-02-19T19:34:48.794Z,6.22
2019-02-19T19:37:21.040Z,6.13
2019-02-19T19:39:58.259Z,6.07
2019-02-19T19:42:31.834Z,6.03
2019-02-19T19:45:09.918Z,5.95
2019-02-19T19:47:40.559Z,5.92
2019-02-19T19:50:22.909Z,5.86
2019-02-19T19:53:01.346Z,5.77
2019-02-19T19:55:37.594Z,5.71
2019-02-19T19:58:10.583Z,5.63
2019-02-19T20:00:48.001Z,5.59
2019-02-19T20:03:20.954Z,5.51
2019-02-19T20:06:12.228Z,5.46
2019-02-19T20:08:44.009Z,5.40
2019-02-19T20:11:19.696Z,5.31
2019-02-19T20:13:55.384Z,5.22
2019-02-19T20:16:28.367Z,5.19
2019-02-19T20:19:04.784Z,5.15
2019-02-19T20:21:38.861Z,5.13
2019-02-19T20:24:12.969Z,5.07
2019-02-19T20:26:45.986Z,5.01
2019-02-19T20:29:16.739Z,4.98
2019-02-19T20:31:55.418Z,4.93
2019-02-19T20:34:30.177Z,4.86
2019-02-19T20:37:10.536Z,4.81
2019-02-19T20:39:44.447Z,4.76
2019-02-19T20:42:21.889Z,4.74
2019-02-19T20:45:00.509Z,4.60
2019-02-19T20:47:33.245Z,4.60
2019-02-19T20:50:08.030Z,4.53
2019-02-19T20:52:39.999Z,4.53
2019-02-19T20:55:16.985Z,4.50
2019-02-19T20:57:51.786Z,4.43
2019-02-19T21:00:30.075Z,4.38
2019-02-19T21:03:01.928Z,4.30
2019-02-19T21:05:40.331Z,4.29
2019-02-19T21:08:15.329Z,4.28
2019-02-19T21:10:46.208Z,4.27
2019-02-19T21:13:17.975Z,4.30
2019-02-19T21:15:51.377Z,4.31
2019-02-19T21:18:25.888Z,4.29
2019-02-19T21:21:02.591Z,4.29
2019-02-19T21:23:33.305Z,4.25
2019-02-19T21:26:05.045Z,4.23
2019-02-19T21:28:37.837Z,4.19
2019-02-19T21:31:18.940Z,4.09
2019-02-19T21:33:58.521Z,4.05
2019-02-19T21:36:29.974Z,3.96
2019-02-19T21:39:05.039Z,3.94
2019-02-19T21:41:35.800Z,3.87
2019-02-19T21:44:06.835Z,3.84
2019-02-19T21:46:37.349Z,3.76
2019-02-19T21:49:08.959Z,3.66
2019-02-19T21:51:39.373Z,3.56
2019-02-19T21:54:10.145Z,3.53
2019-02-19T21:56:41.798Z,3.40
2019-02-19T21:59:12.781Z,3.49
2019-02-19T22:01:43.258Z,3.48
2019-02-19T22:04:13.802Z,3.35
2019-02-19T22:06:44.217Z,3.29
2019-02-19T22:09:14.790Z,3.28
2019-02-19T22:11:45.162Z,3.24
2019-02-19T22:14:16.142Z,3.21
2019-02-19T22:16:46.623Z,3.26
2019-02-19T22:19:18.994Z,3.34
2019-02-19T22:22:02.974Z,3.30
2019-02-19T22:24:36.460Z,3.30
2019-02-19T22:27:08.566Z,3.35
2019-02-19T22:29:39.879Z,3.43
2019-02-19T22:32:11.221Z,3.49
2019-02-19T22:34:41.684Z,3.61
2019-02-19T22:37:12.189Z,3.73
2019-02-19T22:39:42.637Z,3.86
2019-02-19T22:42:13.276Z,3.94
2019-02-19T22:44:43.665Z,4.01
2019-02-19T22:47:14.138Z,4.11
2019-02-19T22:49:44.630Z,4.18
2019-02-19T22:52:15.103Z,4.24
2019-02-19T22:55:04.431Z,4.32
2019-02-19T22:57:35.169Z,4.38
2019-02-19T23:00:09.698Z,4.42
2019-02-19T23:02:40.587Z,4.42
2019-02-19T23:05:11.194Z,4.44
2019-02-19T23:07:41.832Z,4.49
2019-02-19T23:10:12.473Z,4.51
2019-02-19T23:12:43.142Z,4.57
2019-02-19T23:15:13.734Z,4.67
2019-02-19T23:17:44.424Z,4.77
2019-02-19T23:20:14.993Z,4.83
2019-02-19T23:22:45.523Z,4.87
2019-02-19T23:25:16.089Z,4.92
2019-02-19T23:27:46.604Z,4.94
2019-02-19T23:30:17.084Z,4.98
2019-02-19T23:32:47.600Z,4.99
2019-02-19T23:35:36.874Z,5.05
2019-02-19T23:38:07.901Z,5.04
2019-02-19T23:40:38.673Z,5.02
2019-02-19T23:43:09.092Z,5.05
2019-02-19T23:45:39.902Z,5.06
2019-02-19T23:48:10.468Z,5.04
2019-02-19T23:50:41.226Z,5.04
2019-02-19T23:53:11.662Z,5.06
2019-02-19T23:55:42.084Z,5.14
2019-02-19T23:58:12.689Z,5.18
